Time;durP1;ratioP1;P1;durP2;ratioP2;P2;SDS_P1;SDS_P2;PMS_P1;PMS_P2;Temp;Humidity;BMP_temperature;BMP_pressure;BME280_temperature;BME280_humidity;BME280_pressure;Samples;Min_cycle;Max_cycle;Signal;HPM_P1;HPM_P2
2022/10/23 00:00:55;;;;;;;18.15;6.80;;;11.20;99.90;;;;;;5065120;28;20557;-71
2022/10/23 00:03:21;;;;;;;30.48;8.15;;;11.20;99.90;;;;;;5065581;28;20041;-71
2022/10/23 00:05:46;;;;;;;21.83;6.88;;;11.20;99.90;;;;;;5046978;28;20090;-71
2022/10/23 00:08:12;;;;;;;16.15;6.82;;;11.20;99.90;;;;;;5065898;28;20039;-71
2022/10/23 00:10:40;;;;;;;22.45;7.93;;;11.20;99.90;;;;;;5049984;28;20552;-71
2022/10/23 00:13:06;;;;;;;13.35;6.38;;;11.20;99.90;;;;;;5065830;28;20493;-71
2022/10/23 00:15:34;;;;;;;17.95;6.60;;;11.20;99.90;;;;;;5065628;28;20052;-71
2022/10/23 00:17:59;;;;;;;13.73;6.38;;;11.40;99.90;;;;;;5066320;28;20037;-70
2022/10/23 00:20:25;;;;;;;14.68;6.47;;;11.10;99.90;;;;;;5067403;28;20040;-71
2022/10/23 00:22:51;;;;;;;14.50;6.15;;;11.10;99.90;;;;;;5063767;28;20098;-71
2022/10/23 00:25:17;;;;;;;13.93;5.63;;;11.10;99.90;;;;;;5060090;28;20045;-71
2022/10/23 00:27:46;;;;;;;13.00;5.93;;;11.10;99.90;;;;;;5063756;28;20067;-71
2022/10/23 00:30:12;;;;;;;21.30;6.80;;;11.10;99.90;;;;;;5060744;28;20110;-70
2022/10/23 00:32:38;;;;;;;16.98;5.53;;;11.10;99.90;;;;;;5057609;28;20061;-71
2022/10/23 00:35:04;;;;;;;16.00;5.43;;;11.10;99.90;;;;;;5038781;28;20107;-71
2022/10/23 00:37:30;;;;;;;15.85;5.57;;;11.00;99.90;;;;;;5065601;28;20041;-71
2022/10/23 00:39:56;;;;;;;13.23;5.00;;;11.00;99.90;;;;;;5070612;28;20032;-70
2022/10/23 00:42:23;;;;;;;16.88;5.78;;;11.00;99.90;;;;;;5069745;28;20068;-70
2022/10/23 00:44:51;;;;;;;15.00;5.18;;;10.90;99.90;;;;;;5051057;28;20055;-70
2022/10/23 00:47:17;;;;;;;11.90;5.45;;;10.90;99.90;;;;;;5069110;28;20045;-70
2022/10/23 00:49:43;;;;;;;11.65;5.15;;;10.90;99.90;;;;;;5068781;28;20110;-70
2022/10/23 00:52:11;;;;;;;9.02;4.68;;;10.90;99.90;;;;;;5050607;28;20044;-70
2022/10/23 00:54:39;;;;;;;11.65;4.55;;;10.90;99.90;;;;;;5066971;28;20044;-70
2022/10/23 00:57:10;;;;;;;11.05;4.63;;;10.80;99.90;;;;;;5069679;28;20041;-70
2022/10/23 00:59:36;;;;;;;8.90;4.60;;;10.90;99.90;;;;;;5068826;28;20075;-70
2022/10/23 01:02:02;;;;;;;14.25;5.35;;;10.80;99.90;;;;;;5068794;28;20098;-70
2022/10/23 01:04:28;;;;;;;15.13;5.70;;;10.80;99.90;;;;;;5069458;28;20068;-70
2022/10/23 01:07:01;;;;;;;11.77;6.05;;;10.80;99.90;;;;;;5057486;28;20143;-70
2022/10/23 01:09:47;;;;;;;14.70;6.70;;;10.70;99.90;;;;;;5069309;28;20045;-70
2022/10/23 01:12:42;;;;;;;17.88;8.50;;;10.70;99.90;;;;;;5056933;28;20049;-70
2022/10/23 01:15:28;;;;;;;19.20;7.65;;;10.70;99.90;;;;;;5064964;28;20044;-70
2022/10/23 01:18:24;;;;;;;20.25;9.63;;;10.90;99.90;;;;;;5050368;28;20084;-70
2022/10/23 01:21:12;;;;;;;21.73;9.65;;;10.80;99.90;;;;;;5069683;28;20137;-70
2022/10/23 01:24:11;;;;;;;23.13;10.07;;;10.80;99.90;;;;;;5067829;28;20063;-70
2022/10/23 01:26:46;;;;;;;19.20;9.98;;;10.70;99.90;;;;;;5067081;28;20493;-70
2022/10/23 01:29:18;;;;;;;24.63;11.20;;;10.80;99.90;;;;;;5063651;28;20070;-70
2022/10/23 01:31:52;;;;;;;24.25;12.45;;;10.80;99.90;;;;;;5066039;28;20090;-70
2022/10/23 01:34:49;;;;;;;27.80;11.77;;;10.80;99.90;;;;;;5051515;28;20060;-70
2022/10/23 01:37:21;;;;;;;27.10;11.48;;;10.80;99.90;;;;;;5048845;28;20044;-70
2022/10/23 01:39:51;;;;;;;32.63;13.00;;;10.80;99.90;;;;;;5062063;28;20083;-70
2022/10/23 01:42:29;;;;;;;34.00;12.57;;;10.80;99.90;;;;;;5068314;28;20079;-70
2022/10/23 01:45:04;;;;;;;23.23;11.98;;;10.80;99.90;;;;;;5063201;28;20045;-70
2022/10/23 01:47:34;;;;;;;21.38;11.73;;;10.80;99.90;;;;;;5065803;28;20451;-69
2022/10/23 01:50:02;;;;;;;21.20;11.45;;;10.80;99.90;;;;;;5048877;28;20054;-70
2022/10/23 01:52:28;;;;;;;25.73;12.25;;;10.80;99.90;;;;;;5067345;28;20083;-70
2022/10/23 01:54:58;;;;;;;24.00;12.57;;;10.80;99.90;;;;;;5064206;28;20071;-69
2022/10/23 01:57:28;;;;;;;20.95;12.40;;;10.80;99.90;;;;;;5064371;28;20425;-69
2022/10/23 02:00:07;;;;;;;19.20;12.60;;;10.80;99.90;;;;;;5065932;28;20048;-70
2022/10/23 02:02:37;;;;;;;26.17;13.32;;;10.80;99.90;;;;;;5064261;28;20049;-70
2022/10/23 02:05:12;;;;;;;28.60;13.57;;;10.80;99.90;;;;;;5066926;28;20052;-70
2022/10/23 02:07:38;;;;;;;29.00;13.15;;;10.80;99.90;;;;;;5067444;28;20102;-70
2022/10/23 02:10:07;;;;;;;24.42;13.45;;;11.00;99.90;;;;;;5066554;28;20048;-70
2022/10/23 02:13:04;;;;;;;27.77;13.25;;;10.80;99.90;;;;;;5063285;28;20047;-70
2022/10/23 02:15:58;;;;;;;27.95;12.80;;;10.80;99.90;;;;;;5025290;28;20060;-70
2022/10/23 02:19:01;;;;;;;23.10;12.63;;;10.80;99.90;;;;;;5077477;28;20040;-70
2022/10/23 02:21:35;;;;;;;29.23;12.85;;;10.80;99.90;;;;;;5012142;28;20049;-70
2022/10/23 02:24:08;;;;;;;22.83;12.70;;;10.80;99.90;;;;;;5064286;28;20091;-70
2022/10/23 02:26:39;;;;;;;19.60;12.38;;;10.80;99.90;;;;;;5048545;28;20053;-70
2022/10/23 02:29:44;;;;;;;19.75;11.52;;;10.80;99.90;;;;;;5064877;28;20119;-70
2022/10/23 02:32:11;;;;;;;21.05;11.52;;;10.80;99.90;;;;;;5044459;28;20075;-70
2022/10/23 02:34:37;;;;;;;20.98;11.00;;;10.70;99.90;;;;;;5062205;28;20044;-70
2022/10/23 02:37:03;;;;;;;16.27;10.68;;;10.80;99.90;;;;;;5045824;28;20107;-70
2022/10/23 02:39:29;;;;;;;19.27;9.98;;;10.70;99.90;;;;;;5062064;28;20040;-70
2022/10/23 02:42:07;;;;;;;16.75;9.25;;;10.70;99.90;;;;;;5060203;28;20440;-70
2022/10/23 02:44:45;;;;;;;15.02;8.98;;;10.70;99.90;;;;;;5068065;28;20040;-70
2022/10/23 02:47:35;;;;;;;14.95;8.10;;;10.70;99.90;;;;;;5067137;28;20157;-70
2022/10/23 02:50:19;;;;;;;12.50;8.30;;;10.60;99.90;;;;;;5065860;28;20043;-70
2022/10/23 02:53:14;;;;;;;13.73;7.88;;;10.60;99.90;;;;;;5066535;28;20036;-70
2022/10/23 02:55:58;;;;;;;12.82;7.65;;;10.60;99.90;;;;;;5065827;28;20482;-70
2022/10/23 02:58:37;;;;;;;11.65;7.20;;;10.50;99.90;;;;;;5064900;28;20135;-70
2022/10/23 03:01:10;;;;;;;10.23;6.82;;;10.50;99.90;;;;;;5067333;28;20037;-70
2022/10/23 03:03:40;;;;;;;11.85;6.40;;;10.50;99.90;;;;;;5066943;28;20037;-70
2022/10/23 03:06:07;;;;;;;11.50;5.90;;;10.50;99.90;;;;;;5066407;28;20093;-70
2022/10/23 03:08:52;;;;;;;10.70;7.07;;;10.40;99.90;;;;;;5066695;28;20090;-70
2022/10/23 03:11:18;;;;;;;12.02;6.50;;;10.40;99.90;;;;;;5066252;28;20050;-70
2022/10/23 03:13:47;;;;;;;10.32;6.57;;;10.40;99.90;;;;;;5067126;28;20607;-70
2022/10/23 03:16:12;;;;;;;9.98;6.43;;;10.30;99.90;;;;;;5066719;28;20043;-70
2022/10/23 03:18:38;;;;;;;12.73;7.53;;;10.60;99.90;;;;;;5064831;28;20044;-70
2022/10/23 03:21:04;;;;;;;10.13;6.78;;;10.30;99.90;;;;;;5067125;28;20083;-70
2022/10/23 03:23:29;;;;;;;12.25;7.28;;;10.20;99.90;;;;;;5067082;28;20079;-70
2022/10/23 03:25:55;;;;;;;11.55;6.97;;;10.30;99.90;;;;;;5048910;28;20378;-70
2022/10/23 03:28:21;;;;;;;15.00;8.05;;;10.20;99.90;;;;;;5066703;28;20577;-70
2022/10/23 03:30:47;;;;;;;12.73;7.88;;;10.20;99.90;;;;;;5065943;28;20040;-70
2022/10/23 03:33:13;;;;;;;17.73;7.80;;;10.20;99.90;;;;;;5059582;28;20048;-70
2022/10/23 03:35:39;;;;;;;12.10;7.85;;;10.20;99.90;;;;;;5053669;28;20048;-70
2022/10/23 03:38:04;;;;;;;11.82;7.80;;;10.20;99.90;;;;;;5067073;28;20687;-70
2022/10/23 03:40:30;;;;;;;14.65;7.88;;;10.20;99.90;;;;;;5065776;28;20032;-70
2022/10/23 03:42:56;;;;;;;13.23;8.70;;;10.20;99.90;;;;;;5066923;28;20481;-70
2022/10/23 03:45:22;;;;;;;12.93;8.48;;;10.20;99.90;;;;;;5067972;28;20048;-70
2022/10/23 03:47:49;;;;;;;12.20;8.70;;;10.20;99.90;;;;;;5048320;28;20105;-70
2022/10/23 03:50:15;;;;;;;11.38;8.63;;;10.20;99.90;;;;;;5067383;28;20048;-70
2022/10/23 03:52:41;;;;;;;13.55;8.93;;;10.20;99.90;;;;;;5065685;28;20075;-70
2022/10/23 03:55:07;;;;;;;12.88;8.52;;;10.20;99.90;;;;;;5065737;28;20461;-70
2022/10/23 03:57:32;;;;;;;13.63;9.13;;;10.20;99.90;;;;;;5065969;28;20124;-70
2022/10/23 03:59:58;;;;;;;14.60;8.82;;;10.20;99.90;;;;;;5048272;28;20145;-70
2022/10/23 04:02:24;;;;;;;12.45;9.45;;;10.40;99.90;;;;;;5066411;28;20052;-70
2022/10/23 04:04:49;;;;;;;13.13;8.77;;;10.20;99.90;;;;;;5066599;28;20124;-70
2022/10/23 04:07:15;;;;;;;15.68;10.40;;;10.20;99.90;;;;;;5066819;28;20094;-70
2022/10/23 04:09:41;;;;;;;16.40;10.00;;;10.20;99.90;;;;;;5068145;28;20144;-70
2022/10/23 04:12:06;;;;;;;17.38;10.02;;;10.20;99.90;;;;;;5070923;28;20041;-70
2022/10/23 04:14:32;;;;;;;16.38;9.90;;;10.20;99.90;;;;;;5071022;28;20040;-70
2022/10/23 04:16:58;;;;;;;17.27;10.60;;;10.20;99.90;;;;;;5104329;28;20409;-70
2022/10/23 04:19:24;;;;;;;12.07;8.90;;;10.20;99.90;;;;;;5072506;28;20405;-70
2022/10/23 04:21:49;;;;;;;15.25;9.45;;;10.20;99.90;;;;;;5069818;28;20142;-70
2022/10/23 04:24:15;;;;;;;14.68;8.90;;;10.20;99.90;;;;;;5071444;28;20864;-70
2022/10/23 04:26:40;;;;;;;14.68;9.98;;;10.10;99.90;;;;;;5070529;28;20374;-69
2022/10/23 04:29:06;;;;;;;15.05;8.75;;;10.20;99.90;;;;;;5070373;28;20091;-70
2022/10/23 04:31:32;;;;;;;18.00;10.52;;;10.10;99.90;;;;;;5053802;28;20114;-69
2022/10/23 04:33:57;;;;;;;15.75;10.57;;;10.10;99.90;;;;;;5069811;28;20032;-69
2022/10/23 04:36:23;;;;;;;18.05;10.55;;;10.20;99.90;;;;;;5070721;28;20048;-70
2022/10/23 04:38:49;;;;;;;16.40;9.77;;;10.10;99.90;;;;;;5063904;28;20418;-69
2022/10/23 04:41:15;;;;;;;16.25;9.77;;;10.10;99.90;;;;;;5059077;28;20153;-70
2022/10/23 04:43:40;;;;;;;17.17;10.20;;;10.10;99.90;;;;;;5032053;28;20044;-69
2022/10/23 04:46:06;;;;;;;20.77;10.43;;;10.10;99.90;;;;;;5082712;28;20048;-69
2022/10/23 04:48:32;;;;;;;19.75;11.32;;;10.20;99.90;;;;;;5050451;28;20051;-70
2022/10/23 04:51:00;;;;;;;19.80;11.13;;;10.20;99.90;;;;;;5068126;28;20052;-69
2022/10/23 04:53:27;;;;;;;16.80;10.65;;;10.30;99.90;;;;;;5053222;28;20094;-69
2022/10/23 04:55:55;;;;;;;18.00;10.90;;;10.10;99.90;;;;;;5070068;28;20042;-69
2022/10/23 04:58:22;;;;;;;29.08;12.63;;;10.20;99.90;;;;;;5070316;28;20123;-69
2022/10/23 05:00:48;;;;;;;22.00;11.73;;;10.10;99.90;;;;;;5069559;28;20124;-69
2022/10/23 05:03:14;;;;;;;23.00;13.27;;;10.10;99.90;;;;;;5068582;28;20653;-69
2022/10/23 05:05:41;;;;;;;23.13;12.35;;;10.10;99.90;;;;;;5092677;28;20091;-69
2022/10/23 05:08:07;;;;;;;25.88;14.05;;;10.10;99.90;;;;;;5070191;28;20040;-69
2022/10/23 05:10:33;;;;;;;22.67;13.43;;;10.20;99.90;;;;;;5069587;28;20279;-69
2022/10/23 05:12:59;;;;;;;23.83;13.38;;;10.10;99.90;;;;;;5068704;28;20049;-69
2022/10/23 05:15:25;;;;;;;20.40;13.98;;;10.20;99.90;;;;;;5070776;28;20040;-69
2022/10/23 05:17:56;;;;;;;23.20;14.73;;;10.20;99.90;;;;;;5066935;28;20413;-69
2022/10/23 05:20:29;;;;;;;27.65;14.52;;;10.20;99.90;;;;;;5068774;28;20045;-70
2022/10/23 05:22:57;;;;;;;28.13;14.93;;;10.20;99.90;;;;;;5067607;28;20408;-70
2022/10/23 05:25:22;;;;;;;22.73;14.57;;;10.30;99.90;;;;;;5070022;28;20113;-69
2022/10/23 05:27:48;;;;;;;26.15;14.55;;;10.20;99.90;;;;;;5067667;28;20049;-69
2022/10/23 05:30:14;;;;;;;27.10;15.70;;;10.30;99.90;;;;;;5070167;28;20079;-69
2022/10/23 05:32:40;;;;;;;24.13;14.55;;;10.30;99.90;;;;;;5051668;28;20040;-70
2022/10/23 05:35:09;;;;;;;23.77;15.25;;;10.30;99.90;;;;;;5053920;28;20135;-69
2022/10/23 05:37:42;;;;;;;27.23;15.13;;;10.30;99.90;;;;;;5068127;28;20399;-70
2022/10/23 05:40:09;;;;;;;25.55;15.57;;;10.30;99.90;;;;;;5049401;28;20049;-70
2022/10/23 05:42:34;;;;;;;33.75;16.23;;;10.30;99.90;;;;;;5051662;28;20044;-70
2022/10/23 05:45:00;;;;;;;29.27;16.52;;;10.30;99.90;;;;;;5067208;28;20103;-70
2022/10/23 05:47:25;;;;;;;27.50;15.77;;;10.40;99.90;;;;;;5051438;28;20152;-70
2022/10/23 05:49:51;;;;;;;29.30;16.38;;;10.30;99.90;;;;;;5051066;28;20040;-70
2022/10/23 05:52:19;;;;;;;27.55;16.98;;;10.30;99.90;;;;;;5068818;28;20040;-69
2022/10/23 05:54:45;;;;;;;24.73;15.48;;;10.30;99.90;;;;;;5068079;28;20545;-69
2022/10/23 05:57:10;;;;;;;21.48;14.10;;;10.30;99.90;;;;;;5068630;28;20051;-70
2022/10/23 05:59:36;;;;;;;22.77;15.40;;;10.40;99.90;;;;;;5068247;28;20095;-70
2022/10/23 06:02:02;;;;;;;26.23;15.20;;;10.30;99.90;;;;;;5063723;28;20516;-70
2022/10/23 06:04:27;;;;;;;25.83;15.02;;;10.30;99.90;;;;;;5061201;28;20119;-70
2022/10/23 06:06:53;;;;;;;24.25;15.18;;;10.30;99.90;;;;;;5065267;28;20052;-69
2022/10/23 06:09:19;;;;;;;33.03;16.70;;;10.30;99.90;;;;;;5060919;28;20508;-69
2022/10/23 06:11:45;;;;;;;25.58;14.90;;;10.30;99.90;;;;;;5051919;28;20045;-70
2022/10/23 06:14:11;;;;;;;23.48;14.80;;;10.60;99.90;;;;;;5069362;28;20041;-70
2022/10/23 06:16:37;;;;;;;32.25;15.90;;;10.30;99.90;;;;;;5067342;28;20040;-69
2022/10/23 06:19:02;;;;;;;29.88;16.88;;;10.40;99.90;;;;;;5046778;28;20040;-70
2022/10/23 06:21:28;;;;;;;29.23;16.08;;;10.30;99.90;;;;;;5067938;28;20063;-70
2022/10/23 06:23:55;;;;;;;24.20;16.13;;;10.30;99.90;;;;;;5067265;28;20393;-70
2022/10/23 06:26:20;;;;;;;30.60;16.30;;;10.30;99.90;;;;;;5068021;28;20487;-70
2022/10/23 06:28:46;;;;;;;32.90;16.45;;;10.30;99.90;;;;;;5065724;28;20133;-70
2022/10/23 06:31:14;;;;;;;25.00;15.15;;;10.30;99.90;;;;;;5067387;28;20127;-70
2022/10/23 06:33:40;;;;;;;30.48;16.90;;;10.30;99.90;;;;;;5067798;28;20071;-69
2022/10/23 06:36:09;;;;;;;29.17;16.48;;;10.30;99.90;;;;;;5066857;28;20040;-70
2022/10/23 06:38:39;;;;;;;28.75;16.73;;;10.30;99.90;;;;;;5068844;28;20048;-70
2022/10/23 06:41:07;;;;;;;29.55;16.15;;;10.30;99.90;;;;;;5092629;28;20052;-69
2022/10/23 06:43:33;;;;;;;31.55;15.80;;;10.30;99.90;;;;;;5066960;28;20394;-70
2022/10/23 06:46:03;;;;;;;29.55;15.13;;;10.40;99.90;;;;;;5051648;28;20421;-70
2022/10/23 06:48:29;;;;;;;34.72;16.85;;;10.40;99.90;;;;;;5066956;28;20122;-69
2022/10/23 06:50:55;;;;;;;25.23;16.35;;;10.40;99.90;;;;;;5067629;28;20121;-69
2022/10/23 06:53:23;;;;;;;27.83;16.50;;;10.40;99.90;;;;;;5067142;28;20056;-69
2022/10/23 06:55:50;;;;;;;26.00;15.63;;;10.40;99.90;;;;;;5062924;28;20453;-69
2022/10/23 06:58:16;;;;;;;31.52;16.08;;;10.40;99.90;;;;;;5050318;28;20460;-70
2022/10/23 07:00:43;;;;;;;30.60;15.82;;;10.40;99.90;;;;;;5062633;28;20592;-70
2022/10/23 07:03:09;;;;;;;26.40;16.05;;;10.40;99.90;;;;;;5042645;28;20055;-69
2022/10/23 07:05:35;;;;;;;29.48;15.63;;;10.40;99.90;;;;;;5048876;28;20091;-69
2022/10/23 07:08:03;;;;;;;29.05;17.42;;;10.40;99.90;;;;;;5065677;28;20064;-69
2022/10/23 07:10:28;;;;;;;27.83;17.42;;;10.40;99.90;;;;;;5060003;28;20127;-70
2022/10/23 07:12:59;;;;;;;38.00;19.05;;;10.50;99.90;;;;;;5064480;28;20139;-69
2022/10/23 07:15:26;;;;;;;32.58;18.52;;;10.50;99.90;;;;;;5049492;28;20057;-69
2022/10/23 07:17:52;;;;;;;28.45;17.70;;;10.50;99.90;;;;;;5046318;28;20036;-70
2022/10/23 07:20:18;;;;;;;34.20;17.85;;;10.50;99.90;;;;;;5065466;28;20048;-70
2022/10/23 07:22:53;;;;;;;32.05;17.55;;;10.50;99.90;;;;;;5063745;28;20040;-69
2022/10/23 07:25:20;;;;;;;30.33;18.55;;;10.50;99.90;;;;;;5060352;28;20044;-69
2022/10/23 07:27:46;;;;;;;30.65;16.63;;;10.50;99.90;;;;;;5062904;28;20071;-69
2022/10/23 07:30:13;;;;;;;31.60;16.45;;;10.60;99.90;;;;;;5066804;28;20048;-69
2022/10/23 07:32:39;;;;;;;27.95;16.08;;;10.60;99.90;;;;;;5064471;28;20047;-69
2022/10/23 07:35:05;;;;;;;27.55;15.65;;;10.60;99.90;;;;;;5048178;28;20068;-69
2022/10/23 07:37:31;;;;;;;29.95;15.60;;;10.60;99.90;;;;;;5048269;28;20120;-69
2022/10/23 07:39:57;;;;;;;26.63;15.90;;;10.70;99.90;;;;;;5064760;28;20537;-69
2022/10/23 07:42:23;;;;;;;29.23;16.90;;;10.70;99.90;;;;;;5067577;28;20075;-70
2022/10/23 07:44:48;;;;;;;31.35;16.73;;;10.70;99.90;;;;;;5065888;28;20170;-70
2022/10/23 07:47:14;;;;;;;26.92;15.68;;;10.70;99.90;;;;;;5064642;28;20402;-69
2022/10/23 07:49:40;;;;;;;30.23;16.90;;;10.70;99.90;;;;;;5047338;28;20481;-70
2022/10/23 07:52:06;;;;;;;23.45;15.70;;;10.80;99.90;;;;;;5064462;28;20459;-70
2022/10/23 07:54:32;;;;;;;35.65;15.88;;;10.70;99.90;;;;;;5064052;28;20501;-70
2022/10/23 07:56:58;;;;;;;25.25;15.95;;;10.90;99.90;;;;;;5064626;28;20515;-70
2022/10/23 07:59:24;;;;;;;27.33;16.60;;;10.80;99.90;;;;;;5045460;28;20048;-70
2022/10/23 08:01:51;;;;;;;26.58;16.42;;;10.80;99.90;;;;;;5056668;28;20037;-69
2022/10/23 08:04:18;;;;;;;29.02;15.35;;;10.80;99.90;;;;;;5070060;28;20044;-70
2022/10/23 08:06:44;;;;;;;27.10;15.52;;;10.90;99.90;;;;;;5064779;28;20048;-69
2022/10/23 08:09:09;;;;;;;32.20;16.08;;;10.90;99.90;;;;;;5047099;28;20051;-69
2022/10/23 08:11:35;;;;;;;33.35;17.08;;;10.90;99.90;;;;;;5059231;28;20040;-70
2022/10/23 08:14:04;;;;;;;30.20;15.85;;;10.90;99.90;;;;;;5063305;28;21116;-70
2022/10/23 08:16:35;;;;;;;24.25;16.42;;;11.00;99.90;;;;;;5065271;28;20123;-70
2022/10/23 08:19:01;;;;;;;26.92;16.30;;;11.00;99.90;;;;;;5063959;28;20489;-70
2022/10/23 08:21:27;;;;;;;28.13;17.05;;;11.40;99.90;;;;;;5061389;28;20095;-70
2022/10/23 08:23:55;;;;;;;30.00;16.95;;;11.30;99.90;;;;;;5057370;28;20041;-69
2022/10/23 08:26:21;;;;;;;25.85;16.23;;;11.10;99.90;;;;;;5066514;28;20044;-70
2022/10/23 08:28:47;;;;;;;32.20;17.38;;;11.10;99.90;;;;;;5069443;28;20064;-70
2022/10/23 08:31:18;;;;;;;31.48;18.42;;;11.10;99.90;;;;;;5047343;28;20523;-70
2022/10/23 08:33:44;;;;;;;30.48;17.70;;;11.20;99.90;;;;;;5069358;28;20044;-69
2022/10/23 08:36:28;;;;;;;31.48;17.33;;;11.20;99.90;;;;;;5091997;28;20045;-70
2022/10/23 08:38:59;;;;;;;27.20;16.10;;;11.30;99.90;;;;;;5042826;28;20049;-70
2022/10/23 08:41:33;;;;;;;;;;;11.30;99.90;;;;;;5065905;28;20074;-70
2022/10/23 08:44:10;;;;;;;26.95;14.90;;;11.30;99.90;;;;;;5076527;28;20014;-70
2022/10/23 08:46:41;;;;;;;28.63;15.13;;;11.40;99.90;;;;;;5062215;28;20048;-70
2022/10/23 08:49:31;;;;;;;29.35;15.75;;;11.50;99.90;;;;;;5052290;28;20048;-70
2022/10/23 08:52:01;;;;;;;28.60;15.95;;;11.50;99.90;;;;;;5062818;28;20580;-70
2022/10/23 08:54:48;;;;;;;28.52;15.80;;;11.50;99.90;;;;;;5054978;28;20194;-70
2022/10/23 08:57:16;;;;;;;27.27;15.35;;;11.60;99.90;;;;;;5050873;28;20118;-70
2022/10/23 08:59:49;;;;;;;31.92;16.02;;;11.60;99.90;;;;;;5049102;28;20047;-70
2022/10/23 09:02:20;;;;;;;30.30;16.95;;;11.70;99.90;;;;;;5057211;28;20132;-70
2022/10/23 09:04:47;;;;;;;;;;;11.70;99.90;;;;;;5062275;28;20402;-71
2022/10/23 09:07:22;;;;;;;25.67;15.65;;;11.80;99.90;;;;;;5057825;28;19921;-70
2022/10/23 09:10:13;;;;;;;21.77;14.80;;;11.90;99.90;;;;;;5064093;28;20135;-70
2022/10/23 09:12:41;;;;;;;26.52;15.10;;;12.00;99.90;;;;;;5058490;28;20048;-70
2022/10/23 09:15:14;;;;;;;22.23;14.80;;;12.00;99.90;;;;;;5067648;28;20049;-70
2022/10/23 09:17:42;;;;;;;25.75;14.60;;;12.00;99.90;;;;;;5048040;28;20066;-69
2022/10/23 09:20:22;;;;;;;29.25;15.10;;;12.10;99.90;;;;;;5065362;28;20068;-70
2022/10/23 09:22:53;;;;;;;22.88;14.13;;;12.20;99.90;;;;;;5066129;28;20048;-70
2022/10/23 09:25:39;;;;;;;25.00;13.33;;;12.20;99.90;;;;;;5072291;28;20048;-70
2022/10/23 09:28:05;;;;;;;23.95;13.82;;;12.30;99.90;;;;;;5068915;28;20421;-70
2022/10/23 09:30:33;;;;;;;24.23;14.32;;;12.30;99.90;;;;;;5059936;28;20413;-69
2022/10/23 09:33:00;;;;;;;24.17;14.25;;;12.40;99.90;;;;;;5066613;28;20406;-70
2022/10/23 09:35:28;;;;;;;23.80;14.77;;;12.40;99.90;;;;;;5050297;28;20037;-70
2022/10/23 09:37:55;;;;;;;26.33;13.45;;;12.50;99.90;;;;;;5067968;28;20043;-70
2022/10/23 09:40:41;;;;;;;30.38;13.10;;;12.60;99.90;;;;;;5064044;28;20063;-70
2022/10/23 09:43:15;;;;;;;22.27;12.10;;;12.70;99.90;;;;;;5043049;28;20048;-70
2022/10/23 09:45:41;;;;;;;23.33;12.45;;;12.70;99.90;;;;;;5062122;28;20366;-69
2022/10/23 09:48:11;;;;;;;19.13;12.00;;;12.80;99.90;;;;;;5058740;28;20055;-69
2022/10/23 09:50:41;;;;;;;26.13;12.52;;;12.90;99.90;;;;;;5067740;28;20075;-70
2022/10/23 09:53:16;;;;;;;22.10;11.93;;;12.80;99.90;;;;;;5069163;28;20052;-70
2022/10/23 09:55:43;;;;;;;19.98;10.63;;;12.90;99.90;;;;;;5068987;28;20051;-69
2022/10/23 09:58:23;;;;;;;18.73;10.43;;;13.00;99.90;;;;;;5051268;28;20044;-70
2022/10/23 10:00:49;;;;;;;19.48;11.20;;;13.20;99.90;;;;;;5041064;28;20060;-70
2022/10/23 10:03:23;;;;;;;19.83;9.85;;;13.10;99.90;;;;;;5057850;28;20041;-69
2022/10/23 10:06:03;;;;;;;16.63;9.68;;;13.10;99.90;;;;;;5056317;28;20394;-70
2022/10/23 10:08:51;;;;;;;19.67;10.60;;;13.20;99.90;;;;;;5060797;28;20077;-70
2022/10/23 10:11:44;;;;;;;16.55;9.20;;;13.20;99.90;;;;;;5066563;28;20123;-70
2022/10/23 10:14:37;;;;;;;23.35;8.57;;;13.30;99.90;;;;;;5065355;28;20052;-70
2022/10/23 10:17:23;;;;;;;15.27;7.95;;;13.30;99.90;;;;;;5064057;28;20297;-70
2022/10/23 10:20:03;;;;;;;18.27;8.48;;;13.40;99.90;;;;;;5051092;28;20059;-70
2022/10/23 10:22:48;;;;;;;14.77;7.68;;;13.50;99.90;;;;;;5058747;28;20059;-70
2022/10/23 10:25:32;;;;;;;18.40;7.88;;;13.60;99.90;;;;;;5067170;28;20040;-70
2022/10/23 10:28:23;;;;;;;13.40;6.65;;;13.60;99.90;;;;;;5067287;28;20048;-70
2022/10/23 10:31:07;;;;;;;12.48;6.43;;;13.70;99.90;;;;;;5062655;28;20127;-70
2022/10/23 10:34:16;;;;;;;14.98;6.55;;;13.80;99.90;;;;;;5050406;28;20092;-70
2022/10/23 10:37:04;;;;;;;13.95;6.30;;;13.90;99.90;;;;;;5006133;28;20037;-70
2022/10/23 10:39:33;;;;;;;15.43;6.15;;;13.90;99.90;;;;;;5014175;28;20057;-70
2022/10/23 10:42:22;;;;;;;16.23;6.47;;;14.00;99.90;;;;;;5050255;28;20467;-70
2022/10/23 10:45:11;;;;;;;15.30;5.97;;;14.00;99.90;;;;;;5065175;28;20036;-70
2022/10/23 10:48:07;;;;;;;15.45;5.60;;;14.10;99.90;;;;;;5071246;28;20044;-70
2022/10/23 10:50:53;;;;;;;11.57;4.88;;;14.20;99.90;;;;;;5042809;28;20528;-70
2022/10/23 10:53:46;;;;;;;12.57;5.45;;;14.30;99.90;;;;;;5039084;28;20661;-70
2022/10/23 10:56:15;;;;;;;12.57;5.15;;;14.30;99.90;;;;;;5056527;28;20037;-70
2022/10/23 10:58:49;;;;;;;12.65;5.43;;;14.30;99.90;;;;;;5083087;28;20732;-70
2022/10/23 11:01:27;;;;;;;12.00;4.68;;;14.30;99.90;;;;;;5060776;28;20102;-71
2022/10/23 11:04:09;;;;;;;16.98;5.50;;;14.40;99.90;;;;;;5057756;28;20055;-70
2022/10/23 11:06:37;;;;;;;10.95;4.90;;;14.50;99.90;;;;;;5067999;28;20052;-70
2022/10/23 11:09:37;;;;;;;13.45;4.95;;;14.50;99.90;;;;;;5058707;28;20497;-70
2022/10/23 11:12:03;;;;;;;9.15;4.47;;;14.60;99.90;;;;;;5043931;28;20118;-70
2022/10/23 11:14:31;;;;;;;9.98;4.43;;;14.60;99.90;;;;;;5063734;28;20060;-70
2022/10/23 11:17:30;;;;;;;12.38;4.50;;;14.60;99.90;;;;;;5063945;28;20124;-70
2022/10/23 11:20:21;;;;;;;9.02;4.88;;;14.60;99.90;;;;;;5066708;28;20056;-71
2022/10/23 11:23:00;;;;;;;12.55;5.25;;;14.60;99.90;;;;;;5048717;28;20114;-70
2022/10/23 11:25:45;;;;;;;10.05;4.00;;;14.70;99.90;;;;;;5066719;28;20047;-70
2022/10/23 11:28:51;;;;;;;9.55;3.90;;;14.80;99.90;;;;;;5066669;28;20144;-70
2022/10/23 11:31:42;;;;;;;14.73;4.50;;;14.70;99.90;;;;;;5039230;28;20058;-70
2022/10/23 11:34:15;;;;;;;13.80;4.18;;;14.80;99.90;;;;;;5059662;28;20047;-70
2022/10/23 11:36:50;;;;;;;8.77;3.72;;;14.80;99.90;;;;;;5064069;28;20048;-71
2022/10/23 11:39:20;;;;;;;14.05;4.22;;;14.90;99.90;;;;;;5062792;28;20044;-71
2022/10/23 11:42:05;;;;;;;11.57;3.50;;;14.90;99.90;;;;;;5066342;28;20072;-70
2022/10/23 11:44:42;;;;;;;12.18;3.88;;;14.90;99.90;;;;;;5065250;28;20055;-70
2022/10/23 11:47:26;;;;;;;10.65;3.65;;;14.90;99.90;;;;;;5062389;28;20036;-70
2022/10/23 11:50:07;;;;;;;9.73;4.10;;;15.00;99.90;;;;;;5068955;28;20131;-71
2022/10/23 11:53:00;;;;;;;13.88;3.80;;;15.00;99.90;;;;;;5063588;28;20511;-70
2022/10/23 11:55:30;;;;;;;13.68;3.85;;;15.10;99.90;;;;;;5061794;28;20040;-70
2022/10/23 11:58:17;;;;;;;11.33;4.10;;;15.10;99.90;;;;;;5047474;28;20032;-71
2022/10/23 12:01:04;;;;;;;11.48;3.80;;;15.10;99.90;;;;;;5069970;28;20076;-71
2022/10/23 12:03:53;;;;;;;10.93;3.25;;;15.10;99.90;;;;;;5046658;28;20049;-71
2022/10/23 12:06:28;;;;;;;8.80;3.40;;;15.10;99.90;;;;;;5061996;28;20044;-71
2022/10/23 12:09:03;;;;;;;10.73;3.05;;;15.10;99.90;;;;;;5058312;28;20135;-71
2022/10/23 12:11:48;;;;;;;10.13;3.28;;;15.10;99.90;;;;;;5058771;28;20051;-71
2022/10/23 12:14:38;;;;;;;10.57;3.10;;;15.10;99.90;;;;;;5062434;28;20044;-70
2022/10/23 12:17:22;;;;;;;12.73;3.22;;;15.30;99.90;;;;;;5052463;28;20045;-71
2022/10/23 12:19:52;;;;;;;10.73;3.00;;;15.10;99.90;;;;;;5058054;28;20094;-71
2022/10/23 12:22:20;;;;;;;11.90;3.58;;;15.10;99.90;;;;;;5043175;28;20076;-71
2022/10/23 12:25:04;;;;;;;12.70;3.60;;;15.20;99.90;;;;;;5061626;28;20404;-71
2022/10/23 12:27:44;;;;;;;11.23;4.00;;;15.20;99.90;;;;;;5063822;28;20072;-70
2022/10/23 12:30:33;;;;;;;12.52;4.13;;;15.20;99.90;;;;;;5067286;28;20048;-70
2022/10/23 12:33:07;;;;;;;15.85;4.35;;;15.20;99.90;;;;;;5052127;28;20052;-70
2022/10/23 12:35:51;;;;;;;13.32;3.95;;;15.20;99.90;;;;;;5067995;28;20122;-70
2022/10/23 12:38:28;;;;;;;11.13;3.70;;;15.20;99.90;;;;;;5069490;28;20043;-70
2022/10/23 12:41:08;;;;;;;7.68;3.58;;;15.20;99.90;;;;;;5051818;28;20080;-70
2022/10/23 12:43:37;;;;;;;10.60;3.97;;;15.30;99.90;;;;;;5063316;28;20056;-70
2022/10/23 12:46:22;;;;;;;18.20;4.22;;;15.30;99.90;;;;;;5093558;28;20037;-70
2022/10/23 12:48:50;;;;;;;11.38;3.20;;;15.30;99.90;;;;;;5065647;28;20541;-70
2022/10/23 12:51:28;;;;;;;8.15;3.40;;;15.30;99.90;;;;;;5069283;28;20509;-70
2022/10/23 12:53:54;;;;;;;10.90;3.60;;;15.30;99.90;;;;;;5061968;28;20055;-70
2022/10/23 12:56:20;;;;;;;9.02;3.40;;;15.30;99.90;;;;;;5056580;28;20253;-70
2022/10/23 12:58:59;;;;;;;10.52;3.72;;;15.30;99.90;;;;;;5063024;28;20102;-70